Terminal Aerodrome Forecast
Issued by NWS Austin/San Antonio, TX

Home | Current Version | Previous Version | Text Only | Print | Product List | Glossary On
Versions: 1 2 3 4 5 6 7 8 9 10 11 12 13 14 15 16 17 18 19 20 21 22 23 24
696
FTUS44 KEWX 281351 AAA
TAFAUS
TAF AMD
KAUS 281351Z 2814/2918 05005KT P6SM BKN012 OVC025
     FM281600 08004KT P6SM SCT015 BKN025
     FM281730 11008KT P6SM BKN040
     FM290100 13008KT P6SM FEW050
     FM290700 14005KT P6SM BKN015=

USA.gov is the U.S. government's official web portal to all federal, state and local government web resources and services.